createdAt,value
2018-06-05T00:02:19.791Z,7.90
2018-06-05T00:04:47.905Z,7.53
2018-06-05T00:07:16.337Z,7.50
2018-06-05T00:09:49.370Z,7.00
2018-06-05T00:12:18.601Z,7.90
2018-06-05T00:14:46.686Z,8.30
2018-06-05T00:17:14.789Z,7.60
2018-06-05T00:19:43.609Z,7.00
2018-06-05T00:22:11.725Z,8.60
2018-06-05T00:24:39.976Z,7.50
2018-06-05T00:27:09.074Z,8.20
2018-06-05T00:29:37.781Z,8.37
2018-06-05T00:32:06.521Z,7.43
2018-06-05T00:34:34.709Z,7.90
2018-06-05T00:37:03.587Z,8.67
2018-06-05T00:39:31.815Z,9.37
2018-06-05T00:41:59.952Z,8.23
2018-06-05T00:44:32.829Z,8.20
2018-06-05T00:47:00.913Z,9.63
2018-06-05T00:49:30.271Z,9.03
2018-06-05T00:52:09.929Z,8.97
2018-06-05T00:54:37.991Z,8.73
2018-06-05T00:57:06.186Z,9.33
2018-06-05T00:59:34.421Z,7.37
2018-06-05T01:02:02.582Z,10.50
2018-06-05T01:04:32.183Z,8.37
2018-06-05T01:07:00.320Z,8.83
2018-06-05T01:09:29.481Z,8.57
2018-06-05T01:11:57.661Z,8.63
2018-06-05T01:14:25.840Z,8.63
2018-06-05T01:16:54.008Z,8.90
2018-06-05T01:19:22.156Z,10.00
2018-06-05T01:21:50.356Z,10.70
2018-06-05T01:24:18.427Z,10.90
2018-06-05T01:26:46.530Z,11.53
2018-06-05T01:29:14.628Z,9.23
2018-06-05T01:31:42.739Z,10.83
2018-06-05T01:34:11.392Z,10.50
2018-06-05T01:36:39.644Z,10.80
2018-06-05T01:39:09.559Z,10.60
2018-06-05T01:41:38.150Z,11.63
2018-06-05T01:44:06.245Z,11.87
2018-06-05T01:46:34.389Z,11.60
2018-06-05T01:49:02.558Z,10.23
2018-06-05T01:51:30.730Z,11.07
2018-06-05T01:53:58.857Z,10.30
2018-06-05T01:56:27.050Z,10.33
2018-06-05T01:58:55.163Z,12.07
2018-06-05T02:01:23.225Z,11.80
2018-06-05T02:03:51.379Z,10.90
2018-06-05T02:06:19.513Z,11.77
2018-06-05T02:08:47.682Z,10.60
2018-06-05T02:11:16.180Z,11.73
2018-06-05T02:13:44.311Z,10.93
2018-06-05T02:16:12.557Z,11.53
2018-06-05T02:18:40.760Z,10.87
2018-06-05T02:21:08.870Z,13.43
2018-06-05T02:23:37.063Z,12.03
2018-06-05T02:26:05.202Z,11.40
2018-06-05T02:28:33.380Z,13.23
2018-06-05T02:31:01.491Z,12.63
2018-06-05T02:33:29.765Z,12.70
2018-06-05T02:35:58.018Z,12.97
2018-06-05T02:38:26.069Z,13.03
2018-06-05T02:40:54.346Z,13.10
2018-06-05T02:43:22.632Z,13.33
2018-06-05T02:45:51.029Z,12.23
2018-06-05T02:48:19.516Z,13.77
2018-06-05T02:50:47.654Z,15.03
2018-06-05T02:53:15.812Z,12.17
2018-06-05T02:55:43.925Z,14.43
2018-06-05T02:58:12.108Z,11.77
2018-06-05T03:00:40.491Z,12.63
2018-06-05T03:03:08.674Z,13.97
2018-06-05T03:05:37.005Z,13.60
2018-06-05T03:08:05.280Z,13.20
2018-06-05T03:10:33.600Z,12.60
2018-06-05T03:13:01.771Z,12.60
2018-06-05T03:15:30.931Z,14.23
2018-06-05T03:17:59.159Z,14.23
2018-06-05T03:20:27.377Z,13.50
2018-06-05T03:22:55.679Z,13.40
2018-06-05T03:25:23.979Z,13.97
2018-06-05T03:27:52.093Z,12.50
2018-06-05T03:30:20.464Z,19.30
2018-06-05T03:32:48.659Z,15.17
2018-06-05T03:35:16.837Z,13.90
2018-06-05T03:37:44.993Z,14.23
2018-06-05T03:40:13.069Z,12.47
2018-06-05T03:42:41.265Z,17.13
2018-06-05T03:45:09.442Z,12.53
2018-06-05T03:47:37.679Z,14.80
2018-06-05T03:50:05.806Z,17.30
2018-06-05T03:52:33.873Z,14.10
2018-06-05T03:55:03.131Z,14.40
2018-06-05T03:57:31.331Z,13.47
2018-06-05T03:59:59.531Z,13.47
2018-06-05T04:02:27.646Z,14.90
2018-06-05T04:04:55.685Z,14.33
2018-06-05T04:07:26.209Z,13.20
2018-06-05T04:09:55.093Z,14.50
2018-06-05T04:12:23.251Z,14.63
2018-06-05T04:14:51.468Z,12.93
2018-06-05T04:17:19.630Z,14.27
2018-06-05T04:19:47.887Z,15.00
2018-06-05T04:22:16.134Z,13.67
2018-06-05T04:24:45.201Z,15.77
2018-06-05T04:27:13.418Z,14.93
2018-06-05T04:29:41.736Z,13.07
2018-06-05T04:32:10.048Z,15.93
2018-06-05T04:34:38.265Z,14.80
2018-06-05T04:37:06.533Z,13.50
2018-06-05T04:39:34.886Z,14.87
2018-06-05T04:42:03.100Z,13.50
2018-06-05T04:44:31.337Z,13.17
2018-06-05T04:46:59.508Z,16.30
2018-06-05T04:49:28.269Z,14.43
2018-06-05T04:51:56.485Z,15.27
2018-06-05T04:54:24.685Z,14.40
2018-06-05T04:56:52.873Z,15.07
2018-06-05T04:59:21.279Z,14.80
2018-06-05T05:01:49.714Z,14.97
2018-06-05T05:04:17.965Z,13.13
2018-06-05T05:06:46.292Z,16.27
2018-06-05T05:09:14.551Z,13.57
2018-06-05T05:11:42.976Z,16.10
2018-06-05T05:14:11.402Z,14.70
2018-06-05T05:16:39.474Z,17.87
2018-06-05T05:19:07.694Z,13.80
2018-06-05T05:21:36.150Z,14.83
2018-06-05T05:24:04.765Z,14.53
2018-06-05T05:26:33.559Z,14.87
2018-06-05T05:29:01.805Z,16.57
2018-06-05T05:31:30.056Z,16.63
2018-06-05T05:33:58.273Z,14.97
2018-06-05T05:36:26.654Z,14.63
2018-06-05T05:38:57.014Z,16.13
2018-06-05T05:41:25.230Z,17.70
2018-06-05T05:43:53.874Z,15.93
2018-06-05T05:46:22.199Z,16.53
2018-06-05T05:48:50.656Z,16.00
2018-06-05T05:51:18.952Z,15.47
2018-06-05T05:53:47.715Z,16.60
2018-06-05T05:56:16.190Z,15.50
2018-06-05T05:58:44.417Z,15.27
2018-06-05T06:01:12.690Z,15.10
2018-06-05T06:03:40.837Z,15.07
2018-06-05T06:06:09.943Z,17.60
2018-06-05T06:08:38.859Z,16.00
2018-06-05T06:11:07.170Z,18.00
2018-06-05T06:13:35.868Z,16.10
2018-06-05T06:16:04.226Z,16.90
2018-06-05T06:18:32.517Z,16.83
2018-06-05T06:21:00.685Z,16.77
2018-06-05T06:23:28.903Z,15.07
2018-06-05T06:25:57.188Z,14.30
2018-06-05T06:28:25.555Z,14.33
2018-06-05T06:30:53.698Z,14.50
2018-06-05T06:33:21.879Z,16.13
2018-06-05T06:35:50.231Z,22.23
2018-06-05T06:38:18.312Z,13.03
2018-06-05T06:40:46.499Z,13.80
2018-06-05T06:43:14.634Z,13.90
2018-06-05T06:45:42.759Z,14.10
2018-06-05T06:48:11.338Z,12.73
2018-06-05T06:50:40.218Z,13.13
2018-06-05T06:53:08.469Z,13.97
2018-06-05T06:55:40.861Z,12.80
2018-06-05T06:58:09.057Z,12.67
2018-06-05T07:00:37.206Z,12.80
2018-06-05T07:03:05.443Z,12.80
2018-06-05T07:05:33.667Z,13.37
2018-06-05T07:08:01.992Z,13.47
2018-06-05T07:10:30.169Z,15.43
2018-06-05T07:12:58.373Z,12.70
2018-06-05T07:15:26.464Z,13.80
2018-06-05T07:17:54.629Z,15.37
2018-06-05T07:20:22.888Z,11.77
2018-06-05T07:22:51.130Z,14.90
2018-06-05T07:25:19.352Z,14.30
2018-06-05T07:27:47.641Z,15.73
2018-06-05T07:30:15.860Z,13.63
2018-06-05T07:32:44.050Z,14.40
2018-06-05T07:35:12.267Z,16.43
2018-06-05T07:37:40.523Z,14.73
2018-06-05T07:40:08.925Z,16.23
2018-06-05T07:42:37.232Z,16.97
2018-06-05T07:45:05.509Z,15.03
2018-06-05T07:47:33.707Z,16.30
2018-06-05T07:50:01.995Z,17.37
2018-06-05T07:52:30.970Z,16.77
2018-06-05T07:54:59.166Z,16.70
2018-06-05T07:57:27.408Z,14.77
2018-06-05T07:59:55.607Z,17.03
2018-06-05T08:02:23.869Z,15.50
2018-06-05T08:04:52.079Z,16.00
2018-06-05T08:07:20.228Z,15.50
2018-06-05T08:09:48.614Z,14.40
2018-06-05T08:12:16.828Z,15.57
2018-06-05T08:14:45.466Z,16.50
2018-06-05T08:17:13.654Z,14.80
2018-06-05T08:19:42.068Z,15.07
2018-06-05T08:22:11.325Z,14.30
2018-06-05T08:24:39.486Z,14.10
2018-06-05T08:27:07.661Z,14.33
2018-06-05T08:29:36.355Z,13.47
2018-06-05T08:32:09.338Z,13.90
2018-06-05T08:34:37.519Z,15.13
2018-06-05T08:37:05.751Z,14.20
2018-06-05T08:39:33.927Z,13.93
2018-06-05T08:42:02.367Z,15.73
2018-06-05T08:44:30.781Z,14.90
2018-06-05T08:46:58.974Z,14.60
2018-06-05T08:49:27.214Z,13.10
2018-06-05T08:51:55.389Z,15.07
2018-06-05T08:54:23.599Z,13.60
2018-06-05T08:56:51.688Z,14.17
2018-06-05T08:59:19.913Z,14.33
2018-06-05T09:01:48.323Z,15.03
2018-06-05T09:04:16.474Z,14.87
2018-06-05T09:06:44.782Z,14.60
2018-06-05T09:09:13.668Z,14.40
2018-06-05T09:11:42.162Z,14.27
2018-06-05T09:14:10.587Z,13.97
2018-06-05T09:16:38.830Z,13.43
2018-06-05T09:19:07.012Z,13.37
2018-06-05T09:21:35.184Z,14.80
2018-06-05T09:24:03.431Z,13.97
2018-06-05T09:26:31.609Z,13.67
2018-06-05T09:28:59.837Z,13.33
2018-06-05T09:31:28.014Z,14.43
2018-06-05T09:33:56.220Z,13.23
2018-06-05T09:36:24.371Z,14.80
2018-06-05T09:38:52.974Z,12.87
2018-06-05T09:41:21.112Z,14.97
2018-06-05T09:43:49.375Z,13.63
2018-06-05T09:46:18.327Z,13.10
2018-06-05T09:48:46.645Z,13.13
2018-06-05T09:51:14.847Z,13.73
2018-06-05T09:53:43.041Z,13.07
2018-06-05T09:56:11.248Z,13.47
2018-06-05T09:58:39.625Z,13.30
2018-06-05T10:01:07.754Z,13.93
2018-06-05T10:03:36.003Z,13.50
2018-06-05T10:06:04.315Z,13.03
2018-06-05T10:08:32.772Z,13.70
2018-06-05T10:11:01.074Z,14.20
2018-06-05T10:13:29.781Z,13.30
2018-06-05T10:15:57.957Z,14.30
2018-06-05T10:18:26.159Z,13.93
2018-06-05T10:20:54.876Z,13.53
2018-06-05T10:23:23.073Z,13.43
2018-06-05T10:25:51.714Z,13.17
2018-06-05T10:28:19.957Z,13.53
2018-06-05T10:30:48.271Z,13.07
2018-06-05T10:33:16.479Z,13.73
2018-06-05T10:35:44.769Z,13.07
2018-06-05T10:38:12.917Z,12.90
2018-06-05T10:40:41.167Z,12.17
2018-06-05T10:43:09.342Z,13.17
2018-06-05T10:45:37.465Z,12.30
2018-06-05T10:48:05.741Z,11.37
2018-06-05T10:50:38.051Z,12.47
2018-06-05T10:53:07.664Z,13.20
2018-06-05T10:55:36.590Z,11.90
2018-06-05T10:58:04.853Z,11.40
2018-06-05T11:00:33.073Z,10.50
2018-06-05T11:03:01.744Z,9.93
2018-06-05T11:05:30.144Z,11.97
2018-06-05T11:07:58.511Z,10.50
2018-06-05T11:10:26.861Z,10.13
2018-06-05T11:12:55.215Z,10.47
2018-06-05T11:15:23.394Z,9.30
2018-06-05T11:17:51.573Z,11.40
2018-06-05T11:20:19.927Z,10.03
2018-06-05T11:22:48.074Z,9.70
2018-06-05T11:25:16.465Z,10.07
2018-06-05T11:27:45.222Z,10.50
2018-06-05T11:30:13.466Z,8.60
2018-06-05T11:32:41.728Z,9.50
2018-06-05T11:35:09.953Z,8.77
2018-06-05T11:37:38.090Z,9.90
2018-06-05T11:40:06.362Z,8.53
2018-06-05T11:42:34.560Z,9.33
2018-06-05T11:45:02.987Z,10.00
2018-06-05T11:47:31.190Z,8.47
2018-06-05T11:50:00.050Z,9.20
2018-06-05T11:52:28.569Z,8.83
2018-06-05T11:54:56.754Z,9.03
2018-06-05T11:57:24.977Z,9.10
2018-06-05T11:59:53.302Z,11.70
2018-06-05T12:02:21.457Z,9.10
2018-06-05T12:04:49.629Z,9.67
2018-06-05T12:07:17.819Z,9.40
2018-06-05T12:09:46.039Z,10.07
2018-06-05T12:12:14.276Z,9.93
2018-06-05T12:14:42.498Z,8.70
2018-06-05T12:17:10.728Z,9.23
2018-06-05T12:19:38.880Z,9.47
2018-06-05T12:22:07.674Z,9.00
2018-06-05T12:24:35.912Z,8.73
2018-06-05T12:27:04.394Z,9.03
2018-06-05T12:29:37.110Z,9.90
2018-06-05T12:32:06.923Z,9.30
2018-06-05T12:34:35.298Z,8.83
2018-06-05T12:37:03.479Z,9.73
2018-06-05T12:39:31.649Z,10.00
2018-06-05T12:41:59.940Z,9.60
2018-06-05T12:44:28.311Z,9.83
2018-06-05T12:46:56.418Z,10.07
2018-06-05T12:49:24.587Z,10.77
2018-06-05T12:51:52.715Z,10.50
2018-06-05T12:54:21.245Z,11.07
2018-06-05T12:56:49.716Z,10.30
2018-06-05T12:59:17.928Z,9.70
2018-06-05T13:01:46.076Z,9.93
2018-06-05T13:04:14.754Z,10.37
2018-06-05T13:06:42.922Z,10.30
2018-06-05T13:09:11.876Z,10.83
2018-06-05T13:11:40.388Z,10.10
2018-06-05T13:14:09.156Z,10.83
2018-06-05T13:16:37.505Z,9.83
2018-06-05T13:19:05.625Z,11.40
2018-06-05T13:21:33.837Z,10.93
2018-06-05T13:24:02.075Z,10.10
2018-06-05T13:26:30.258Z,10.57
2018-06-05T13:28:58.525Z,9.33
2018-06-05T13:31:26.739Z,9.30
2018-06-05T13:33:54.964Z,11.30
2018-06-05T13:36:23.120Z,9.63
2018-06-05T13:38:51.252Z,9.47
2018-06-05T13:41:19.507Z,9.57
2018-06-05T13:43:47.884Z,10.07
2018-06-05T13:46:16.222Z,9.50
2018-06-05T13:48:44.418Z,10.27
2018-06-05T13:51:13.270Z,10.20
2018-06-05T13:53:41.545Z,9.20
2018-06-05T13:56:09.777Z,10.03
2018-06-05T13:58:38.010Z,10.30
2018-06-05T14:01:06.233Z,9.90
2018-06-05T14:03:34.651Z,10.57
2018-06-05T14:06:03.287Z,9.57
2018-06-05T14:08:31.536Z,9.63
2018-06-05T14:11:00.038Z,10.73
2018-06-05T14:13:28.222Z,10.20
2018-06-05T14:15:56.631Z,10.63
2018-06-05T14:18:24.842Z,9.60
2018-06-05T14:20:53.098Z,9.90
2018-06-05T14:23:21.293Z,10.77
2018-06-05T14:25:49.497Z,10.20
2018-06-05T14:28:18.032Z,11.37
2018-06-05T14:30:46.272Z,10.10
2018-06-05T14:33:14.708Z,10.20
2018-06-05T14:35:43.638Z,10.13
2018-06-05T14:38:12.574Z,10.17
2018-06-05T14:40:40.751Z,10.50
2018-06-05T14:43:08.991Z,9.90
2018-06-05T14:45:37.116Z,9.10
2018-06-05T14:48:05.329Z,10.00
2018-06-05T14:50:33.684Z,9.57
2018-06-05T14:53:02.032Z,8.97
2018-06-05T14:55:30.798Z,8.90
2018-06-05T14:57:59.105Z,9.47
2018-06-05T15:00:27.322Z,10.43
2018-06-05T15:02:55.955Z,10.33
2018-06-05T15:05:24.175Z,9.60
2018-06-05T15:07:52.374Z,9.53
2018-06-05T15:10:21.080Z,9.27
2018-06-05T15:12:49.302Z,8.53
2018-06-05T15:15:17.449Z,8.23
2018-06-05T15:17:45.769Z,10.27
2018-06-05T15:20:13.938Z,10.60
2018-06-05T15:22:42.105Z,9.33
2018-06-05T15:25:10.286Z,8.90
2018-06-05T15:27:38.522Z,7.93
2018-06-05T15:30:06.686Z,8.40
2018-06-05T15:32:35.017Z,7.97
2018-06-05T15:35:03.308Z,7.80
2018-06-05T15:37:31.598Z,9.00
2018-06-05T15:40:00.153Z,8.33
2018-06-05T15:42:28.327Z,9.70
2018-06-05T15:44:56.641Z,7.80
2018-06-05T15:47:25.367Z,7.73
2018-06-05T15:49:53.562Z,8.47
2018-06-05T15:52:21.816Z,7.60
2018-06-05T15:54:50.026Z,8.30
2018-06-05T15:57:18.533Z,8.53
2018-06-05T15:59:46.759Z,8.20
2018-06-05T16:02:14.910Z,7.90
2018-06-05T16:04:43.535Z,7.83
2018-06-05T16:07:11.776Z,8.17
2018-06-05T16:09:39.952Z,7.90
2018-06-05T16:12:08.297Z,6.70
2018-06-05T16:14:36.742Z,8.00
2018-06-05T16:17:05.062Z,8.43
2018-06-05T16:19:33.271Z,7.50
2018-06-05T16:22:01.508Z,7.40
2018-06-05T16:24:29.784Z,7.50
2018-06-05T16:26:58.062Z,7.70
2018-06-05T16:29:26.733Z,7.90
2018-06-05T16:31:55.079Z,7.67
2018-06-05T16:34:23.222Z,8.20
2018-06-05T16:36:51.766Z,7.70
2018-06-05T16:39:19.919Z,7.83
2018-06-05T16:41:48.068Z,7.70
2018-06-05T16:44:16.243Z,7.93
2018-06-05T16:46:44.420Z,7.73
2018-06-05T16:49:12.814Z,7.67
2018-06-05T16:51:41.286Z,8.57
2018-06-05T16:54:11.179Z,7.93
2018-06-05T16:56:39.471Z,6.83
2018-06-05T16:59:07.680Z,7.00
2018-06-05T17:01:35.920Z,7.33
2018-06-05T17:04:04.354Z,7.40
2018-06-05T17:06:32.578Z,7.57
2018-06-05T17:09:00.827Z,7.17
2018-06-05T17:11:30.255Z,7.17
2018-06-05T17:13:58.482Z,7.03
2018-06-05T17:16:26.736Z,7.83
2018-06-05T17:18:54.886Z,6.67
2018-06-05T17:21:23.146Z,8.17
2018-06-05T17:23:52.147Z,6.63
2018-06-05T17:26:20.318Z,7.50
2018-06-05T17:28:48.597Z,6.20
2018-06-05T17:31:17.299Z,7.07
2018-06-05T17:33:45.888Z,7.40
2018-06-05T17:36:14.359Z,6.57
2018-06-05T17:38:42.706Z,6.73
2018-06-05T17:41:11.051Z,6.57
2018-06-05T17:43:39.288Z,5.87
2018-06-05T17:46:07.614Z,6.03
2018-06-05T17:48:36.381Z,6.60
2018-06-05T17:51:04.870Z,5.30
2018-06-05T17:53:33.120Z,6.20
2018-06-05T17:56:01.589Z,6.23
2018-06-05T17:58:29.842Z,5.50
2018-06-05T18:00:58.222Z,7.93
2018-06-05T18:03:26.547Z,6.90
2018-06-05T18:05:54.865Z,5.90
2018-06-05T18:08:23.245Z,6.10
2018-06-05T18:10:51.700Z,7.43
2018-06-05T18:13:20.180Z,5.97
2018-06-05T18:15:48.892Z,6.20
2018-06-05T18:18:17.152Z,5.53
2018-06-05T18:20:46.399Z,6.03
2018-06-05T18:23:14.836Z,6.00
2018-06-05T18:25:43.308Z,6.90
2018-06-05T18:28:11.876Z,6.40
2018-06-05T18:30:40.726Z,7.07
2018-06-05T18:33:09.351Z,6.60
2018-06-05T18:35:40.116Z,6.60
2018-06-05T18:38:15.717Z,6.83
2018-06-05T18:40:44.950Z,5.93
2018-06-05T18:43:33.904Z,6.73
2018-06-05T18:46:02.738Z,6.13
2018-06-05T18:57:55.647Z,6.83
2018-06-05T19:00:45.856Z,6.93
2018-06-05T19:03:14.098Z,6.60
2018-06-05T19:05:42.758Z,6.93
2018-06-05T19:08:11.143Z,7.87
2018-06-05T19:10:39.826Z,7.63
2018-06-05T19:13:08.252Z,7.10
2018-06-05T19:15:36.684Z,8.00
2018-06-05T19:18:05.590Z,8.57
2018-06-05T19:20:34.058Z,7.67
2018-06-05T19:23:02.331Z,7.50
2018-06-05T19:25:30.848Z,7.47
2018-06-05T19:27:59.275Z,8.20
2018-06-05T19:30:27.802Z,8.60
2018-06-05T19:32:56.070Z,7.10
2018-06-05T19:35:24.415Z,9.03
2018-06-05T19:37:52.949Z,9.77
2018-06-05T19:40:21.555Z,8.27
2018-06-05T19:42:49.726Z,7.83
2018-06-05T19:45:18.022Z,8.63
2018-06-05T19:47:46.422Z,7.53
2018-06-05T19:50:14.736Z,7.80
2018-06-05T19:52:42.980Z,8.50
2018-06-05T19:55:11.349Z,8.60
2018-06-05T19:57:39.743Z,8.17
2018-06-05T20:00:08.009Z,8.60
2018-06-05T20:02:36.380Z,8.37
2018-06-05T20:05:04.794Z,8.93
2018-06-05T20:07:33.024Z,8.93
2018-06-05T20:10:01.290Z,8.20
2018-06-05T20:12:29.608Z,9.50
2018-06-05T20:14:58.051Z,9.47
2018-06-05T20:17:26.301Z,8.67
2018-06-05T20:19:54.517Z,9.13
2018-06-05T20:22:23.045Z,12.07
2018-06-05T20:24:51.318Z,8.87
2018-06-05T20:27:19.619Z,10.17
2018-06-05T20:29:48.378Z,8.53
2018-06-05T20:32:16.804Z,9.33
2018-06-05T20:34:45.066Z,9.00
2018-06-05T20:37:13.299Z,8.90
2018-06-05T20:39:41.586Z,8.43
2018-06-05T20:42:09.844Z,10.23
2018-06-05T20:44:38.056Z,10.60
2018-06-05T20:47:06.262Z,9.60
2018-06-05T20:49:34.683Z,8.83
2018-06-05T20:52:03.036Z,9.07
2018-06-05T20:54:31.203Z,9.00
2018-06-05T20:56:59.649Z,10.37
2018-06-05T20:59:27.960Z,9.87
2018-06-05T21:01:56.125Z,10.47
2018-06-05T21:04:24.265Z,7.80
2018-06-05T21:06:53.041Z,10.03
2018-06-05T21:09:21.212Z,9.27
2018-06-05T21:11:49.784Z,9.07
2018-06-05T21:14:18.095Z,9.20
2018-06-05T21:16:46.382Z,9.23
2018-06-05T21:19:14.663Z,10.27
2018-06-05T21:21:42.385Z,9.97
2018-06-05T21:24:10.798Z,9.93
2018-06-05T21:26:39.059Z,8.07
2018-06-05T21:29:07.271Z,8.70
2018-06-05T21:31:35.445Z,9.40
2018-06-05T21:34:03.703Z,9.43
2018-06-05T21:36:32.017Z,8.57
2018-06-05T21:39:08.738Z,9.67
2018-06-05T21:41:38.623Z,10.50
2018-06-05T21:44:06.867Z,9.80
2018-06-05T21:46:36.028Z,12.37
2018-06-05T21:49:04.530Z,10.17
2018-06-05T21:51:33.064Z,10.00
2018-06-05T21:54:06.830Z,9.33
2018-06-05T21:56:35.267Z,10.73
2018-06-05T21:59:04.050Z,8.57
2018-06-05T22:01:32.555Z,10.20
2018-06-05T22:04:00.893Z,9.80
2018-06-05T22:06:29.178Z,10.07
2018-06-05T22:09:00.881Z,9.67
2018-06-05T22:11:29.248Z,9.93
2018-06-05T22:13:58.404Z,9.53
2018-06-05T22:16:26.720Z,10.47
2018-06-05T22:18:55.456Z,9.33
2018-06-05T22:21:23.625Z,9.63
2018-06-05T22:23:58.450Z,10.20
2018-06-05T22:26:26.613Z,10.10
2018-06-05T22:28:54.919Z,10.33
2018-06-05T22:31:23.193Z,10.27
2018-06-05T22:33:51.454Z,10.90
2018-06-05T22:36:20.479Z,11.10
2018-06-05T22:38:48.718Z,10.60
2018-06-05T22:41:17.512Z,11.27
2018-06-05T22:43:52.400Z,10.30
2018-06-05T22:46:20.516Z,9.50
2018-06-05T22:48:48.809Z,10.70
2018-06-05T22:51:17.235Z,10.73
2018-06-05T22:53:46.039Z,11.00
2018-06-05T22:56:14.847Z,10.17
2018-06-05T22:58:43.157Z,9.93
2018-06-05T23:01:12.847Z,9.23
2018-06-05T23:03:41.950Z,10.63
2018-06-05T23:06:10.176Z,10.40
2018-06-05T23:08:38.322Z,13.53
2018-06-05T23:11:06.455Z,14.97
2018-06-05T23:13:35.130Z,10.80
2018-06-05T23:16:04.112Z,11.67
2018-06-05T23:18:39.663Z,10.30
2018-06-05T23:21:09.427Z,10.50
2018-06-05T23:23:42.578Z,10.87
2018-06-05T23:26:11.017Z,10.77
2018-06-05T23:28:39.303Z,12.03
2018-06-05T23:31:07.510Z,11.43
2018-06-05T23:33:40.057Z,11.40
2018-06-05T23:36:08.223Z,11.83
2018-06-05T23:38:36.536Z,10.50
2018-06-05T23:41:05.056Z,12.90
2018-06-05T23:43:34.542Z,11.80
2018-06-05T23:46:02.806Z,11.90
2018-06-05T23:48:31.354Z,11.53
2018-06-05T23:50:59.485Z,12.93
2018-06-05T23:53:28.962Z,11.53
2018-06-05T23:55:57.143Z,12.10
2018-06-05T23:58:25.389Z,11.30
